Anamosa, Iowa
Current Conditions -  °F | °C
As of 2:35 PM on Wednesday 26 Nov 2014 (Local Time) from KMXO Reporting Station
Haze Haze  
Wind Chill: 20°   Ceiling: 1300
Heat Index: 28°   Visibility: 6mi
Dew Point: 25°   Wind: 9mph
Humidity: 86%   Direction: 80°E
Pressure: 30.08"   Gusts: NA
Location:  42.11°N, 91.28°W
Report Text: KMXO 262035Z AUTO 08008KT 6SM BR BKN013 BKN050 OVC090 M02/M04 A3008 RMK AO2
Loading
Personal Weather Stations






























Interactive Weather Map New forecast layout! Learn more

10-Day Weather Forecast

Advertisements
Track Severe Weather on mobile